• Join FlightAware (Why Join?)
  • Login
  • US Flag 
08:07AM EDT


 

Airport Tracker/Info


-or-


 

Live Flight TrackerFlight Track Log ✈ EJA941 ✈ 11-Aug-2013 ✈ KIAD - KMSP

Flight Track Log - Related Links

Times and Time Zones

All times are in EDT time to prevent confusion due to time zone crossing. See the EJA941 flight status page for this flight to view local times or setup timezone preferences in your user account.

Time Position Orientation Groundspeed Altitude Reporting Facility
EDT Latitude Longitude Course Direction KTS MPH feet Rate Location/Type
08:31AM 38.9539 -77.5350 300° West 223 257 2,800  Level Washington Center
08:32AM 38.9903 -77.6161 300° West 281 323 7,400 4,140 Climbing Washington Center
08:33AM 39.0583 -77.6500 339° North 267 307 11,100 3,720 Climbing Washington Center
08:34AM 39.1517 -77.6847 344° North 286 329 14,800 2,220 Climbing Washington Center
08:35AM 39.2511 -77.7197 345° North 323 372 15,600 1,020 Climbing Washington Center
08:36AM 39.3503 -77.7656 340° North 356 410 16,900 1,380 Climbing Washington Center
08:37AM 39.4514 -77.8169 339° North 373 429 18,400 1,320 Climbing Washington Center
08:38AM 39.5439 -77.8869 330° Northwest 384 442 19,600 1,380 Climbing Washington Center
08:41AM 39.6800 -78.3336 292° West 397 457 24,500 1,440 Climbing Cleveland Center
08:42AM 39.7181 -78.4672 290° West 397 457 25,900 1,500 Climbing Cleveland Center
08:43AM 39.7603 -78.6036 292° West 403 464 27,500 1,500 Climbing Cleveland Center
08:44AM 39.7958 -78.7431 288° West 403 464 28,900 1,140 Climbing Cleveland Center
08:45AM 39.8356 -78.8772 291° West 403 464 29,900 840 Climbing Cleveland Center
08:46AM 39.8792 -79.0222 291° West 408 470 30,700 1,200 Climbing Cleveland Center
08:47AM 39.9186 -79.1592 291° West 408 470 32,300 1,560 Climbing Cleveland Center
08:48AM 39.9600 -79.3019 291° West 408 470 33,800 1,500 Climbing Cleveland Center
08:49AM 40.0092 -79.4283 297° West 408 470 35,300 1,080 Climbing Cleveland Center
08:50AM 40.0750 -79.5522 305° West 408 470 36,000 840 Climbing Cleveland Center
08:51AM 40.1408 -79.6786 304° West 413 475 37,000 480 Climbing Cleveland Center
08:52AM 40.2083 -79.8111 304° West 430 495 37,000  Level Cleveland Center
08:53AM 40.2758 -79.9436 304° West 437 503 37,000  Level Cleveland Center
08:54AM 40.3433 -80.0872 302° West 437 503 37,000 480 Level Cleveland Center
08:55AM 40.4106 -80.2203 304° West 448 516 38,000 480 Climbing Cleveland Center
08:56AM 40.4650 -80.3267 304° West 448 516 38,000 1,560 Level Cleveland Center
08:57AM 40.5383 -80.4628 305° West 438 504 41,200 2,160 Climbing Cleveland Center
08:58AM 40.6008 -80.5967 302° West 414 476 42,300 900 Climbing Cleveland Center
08:59AM 40.6486 -80.6953 303° West 391 450 43,000 300 Climbing Cleveland Center
09:00AM 40.7214 -80.8350 305° West 404 465 43,000  Level Cleveland Center
09:01AM 40.7878 -80.9669 304° West 420 483 43,000  Level Cleveland Center
09:02AM 40.8600 -81.1183 302° West 442 509 43,000  Level Cleveland Center
09:03AM 40.9472 -81.2292 316° Northwest 442 509 43,000  Level Cleveland Center
09:04AM 41.0278 -81.3261 318° Northwest 436 502 43,000  Level Cleveland Center
09:05AM 41.1147 -81.4264 319° Northwest 422 486 43,000  Level Cleveland Center
09:06AM 41.2056 -81.5325 319° Northwest 427 491 43,000  Level Cleveland Center
09:07AM 41.2922 -81.6333 319° Northwest 422 486 43,000  Level Cleveland Center
09:08AM 41.3747 -81.7397 316° Northwest 417 480 43,000  Level Cleveland Center
09:09AM 41.4650 -81.8550 316° Northwest 417 480 43,000  Level Cleveland Center
09:10AM 41.5453 -81.9508 318° Northwest 400 460 43,000  Level Cleveland Center
09:11AM 41.6192 -82.0442 317° Northwest 400 460 43,000  Level Cleveland Center
09:12AM 41.7136 -82.1575 318° Northwest 400 460 43,000  Level Cleveland Center
09:13AM 41.8017 -82.2683 317° Northwest 408 470 43,000  Level Cleveland Center
09:14AM 41.8939 -82.3794 318° Northwest 428 493 43,000  Level Cleveland Center
09:15AM 41.9858 -82.4911 318° Northwest 434 499 43,000  Level Cleveland Center
09:16AM 42.0714 -82.6056 315° West 441 507 43,000  Level Cleveland Center
09:17AM 42.1508 -82.7089 316° Northwest 446 513 43,000  Level Cleveland Center
09:18AM 42.2425 -82.8186 318° Northwest 436 502 43,000  Level Cleveland Center
09:19AM 42.3319 -82.9286 318° Northwest 436 502 43,000  Level Cleveland Center
09:20AM 42.4214 -83.0414 317° Northwest 436 502 43,000  Level Cleveland Center
09:21AM 42.5086 -83.1547 316° Northwest 436 502 43,000  Level Cleveland Center
09:22AM 42.5956 -83.2656 317° Northwest 436 502 43,000  Level Cleveland Center
09:23AM 42.6825 -83.3794 316° Northwest 436 502 43,000  Level Cleveland Center
09:24AM 42.7694 -83.4936 316° Northwest 436 502 43,000  Level Cleveland Center
09:25AM 42.8561 -83.6025 317° Northwest 436 502 43,000  Level Cleveland Center
09:26AM 42.9428 -83.7172 316° Northwest 436 502 43,000  Level Cleveland Center
09:27AM 43.0078 -83.8511 304° West 429 494 43,000  Level Cleveland Center
09:28AM 43.0600 -83.9931 297° West 420 483 43,000  Level Cleveland Center
09:29AM 43.1119 -84.1356 297° West 420 483 43,000  Level Cleveland Center
09:30AM 43.1681 -84.2753 299° West 420 483 43,000  Level Cleveland Center
09:32AM 43.2433 -84.4728 298° West 420 483 43,000  Level Chicago Center
09:33AM 43.3081 -84.6433 298° West 421 484 43,000  Level Chicago Center
09:34AM 43.3611 -84.7861 297° West 422 486 43,000  Level Chicago Center
09:35AM 43.4144 -84.9308 297° West 426 490 43,000  Level Chicago Center
09:36AM 43.4675 -85.0731 297° West 422 486 43,000  Level Chicago Center
09:37AM 43.5214 -85.2175 297° West 425 489 43,000  Level Chicago Center
09:38AM 43.5736 -85.3606 297° West 422 486 43,000  Level Chicago Center
09:39AM 43.6364 -85.5325 297° West 422 486 43,000  Level Chicago Center
09:40AM 43.6883 -85.6761 297° West 421 484 43,000  Level Chicago Center
09:41AM 43.7397 -85.8189 297° West 419 482 43,000  Level Chicago Center
09:42AM 43.7792 -85.9683 290° West 415 478 43,000  Level Chicago Center
09:43AM 43.8144 -86.1194 288° West 413 475 43,000  Level Chicago Center
09:44AM 43.8558 -86.3000 288° West 413 475 43,000  Level Chicago Center
09:45AM 43.8917 -86.4522 288° West 417 480 43,000  Level Chicago Center
09:46AM 43.9250 -86.6042 287° West 415 478 43,000  Level Chicago Center
09:47AM 43.9592 -86.7564 287° West 415 478 43,000  Level Chicago Center
09:48AM 43.9939 -86.9072 288° West 413 475 43,000  Level Chicago Center
09:49AM 44.0253 -87.0614 286° West 415 478 43,000  Level Chicago Center
09:51AM 44.1006 -87.4019 287° West 415 478 43,000  Level Chicago Center
09:52AM 44.1344 -87.5550 287° West 415 478 43,000  Level Chicago Center
09:54AM 44.1764 -87.7597 286° West 416 479 43,000  Level Minneapolis Center
09:55AM 44.2097 -87.9167 287° West 421 484 43,000  Level Minneapolis Center
09:56AM 44.2431 -88.0781 286° West 431 496 43,000  Level Minneapolis Center
09:57AM 44.2842 -88.2686 287° West 438 504 43,000  Level Minneapolis Center
09:58AM 44.3225 -88.4589 286° West 437 503 43,000  Level Minneapolis Center
09:59AM 44.3569 -88.6236 286° West 442 509 43,000  Level Minneapolis Center
10:00AM 44.3906 -88.7886 286° West 443 510 43,000  Level Minneapolis Center
10:01AM 44.4239 -88.9550 286° West 444 511 43,000  Level Minneapolis Center
10:02AM 44.4633 -89.1531 286° West 450 518 43,000  Level Minneapolis Center
10:03AM 44.5017 -89.3539 285° West 455 524 43,000 -60 Level Minneapolis Center
10:04AM 44.5350 -89.5261 285° West 459 528 42,900 -1,140 Descending Minneapolis Center
10:05AM 44.5683 -89.6928 286° West 450 518 40,700 -2,220 Descending Minneapolis Center
10:06AM 44.5986 -89.8547 285° West 435 501 38,400 -2,280 Descending Minneapolis Center
10:07AM 44.6281 -90.0058 285° West 410 472 36,100 -2,280 Descending Minneapolis Center
10:08AM 44.6561 -90.1592 284° West 405 466 33,800 -2,280 Descending Minneapolis Center
10:09AM 44.6864 -90.3144 285° West 411 473 31,500 -2,340 Descending Minneapolis Center
10:10AM 44.7203 -90.4931 285° West 406 467 29,100 -1,740 Descending Minneapolis Center
10:12AM 44.7458 -90.6294 285° West 409 471 28,000 -1,080 Descending Minneapolis Center
10:13AM 44.7753 -90.7861 285° West 415 478 26,900 -1,680 Descending Minneapolis Center
10:14AM 44.8100 -90.9681 285° West 404 465 24,600 -2,040 Descending Minneapolis Center
10:15AM 44.8389 -91.1169 285° West 399 459 22,800 -2,100 Descending Minneapolis Center
10:16AM 44.8644 -91.2611 284° West 388 447 20,300 -2,520 Descending Minneapolis Center
10:17AM 44.8903 -91.4047 284° West 382 440 17,700 -1,920 Descending Minneapolis Center
10:18AM 44.9106 -91.5183 284° West 379 436 16,400 -1,800 Descending Minneapolis Center
10:19AM 44.9406 -91.6819 285° West 367 422 14,000 -2,280 Descending Minneapolis Center
10:20AM 44.9661 -91.8178 285° West 362 417 11,800 -1,500 Descending Minneapolis Center
10:21AM 44.9950 -91.9781 284° West 351 404 11,000 -420 Descending Minneapolis Center
10:22AM 45.0181 -92.1136 284° West 356 410 11,000  Level Minneapolis Center
10:23AM 45.0422 -92.2525 284° West 364 419 11,000  Level Minneapolis Center
10:24AM 45.0339 -92.3892 265° West 354 407 11,000  Level Minneapolis Center
10:25AM 45.0083 -92.5481 257° West 347 399 11,000  Level Minneapolis Center
10:26AM 44.9875 -92.6811 258° West 348 400 11,000 -540 Level Minneapolis Center
10:27AM 44.9658 -92.8186 257° West 291 335 10,000 -1,440 Descending Minneapolis Center
10:28AM 44.9483 -92.9206 256° West 269 310 8,100 -1,020 Descending Minneapolis Center
10:29AM 44.9319 -93.0222 257° West 268 308 8,000 -60 Descending Minneapolis Center
10:30AM 44.9519 -93.1158 287° West 269 310 8,000 -900 Level Minneapolis Center
10:31AM 45.0003 -93.2192 304° West 266 306 6,000 -1,620 Descending Minneapolis Center
10:33AM 45.0483 -93.3211 304° West 263 303 4,700 -1,020 Descending Minneapolis Center
10:34AM 45.0564 -93.4053 278° West 243 280 4,000 -720 Descending Minneapolis Center
10:35AM 44.9997 -93.4322 199° South 221 254 3,300 -540 Descending Minneapolis Center
10:36AM 44.9608 -93.4050 154° Southeast 200 230 3,000 -480 Descending Minneapolis Center
10:37AM 44.9292 -93.3300 121° Southeast 185 213 2,400 -600 Descending Minneapolis Center
10:38AM 44.9122 -93.2911 122° Southeast 155 178 1,800 -600 Descending Minneapolis Center
10:40AM 44.8820 -93.2218 123° Southeast  Level Estimated
10:47AM 44.8820 -93.2218 123° Southeast  Level Estimated